Time;durP1;ratioP1;P1;durP2;ratioP2;P2;SDS_P1;SDS_P2;PMS_P1;PMS_P2;Temp;Humidity;BMP_temperature;BMP_pressure;BME280_temperature;BME280_humidity;BME280_pressure;Samples;Min_cycle;Max_cycle;Signal;HPM_P1;HPM_P2
2023/07/12 00:00:17;;;;;;;;;;;;;;;29.86;37.18;99679.97;5132340;27;20274;-37
2023/07/12 00:02:42;;;;;;;;;;;;;;;29.82;37.10;99680.63;5135109;27;19956;-37
2023/07/12 00:05:08;;;;;;;;;;;;;;;29.74;37.24;99677.94;5134553;27;19915;-37
2023/07/12 00:07:33;;;;;;;;;;;;;;;29.73;37.30;99677.13;5134332;27;19953;-37
2023/07/12 00:09:59;;;;;;;;;;;;;;;29.68;37.48;99674.53;5134355;27;19954;-37
2023/07/12 00:12:24;;;;;;;;;;;;;;;29.58;37.75;99673.00;5134369;27;20283;-37
2023/07/12 00:14:49;;;;;;;;;;;;;;;29.56;37.93;99667.06;5134410;27;19907;-37
2023/07/12 00:17:15;;;;;;;;;;;;;;;29.55;38.04;99676.44;5134431;27;20254;-37
2023/07/12 00:19:40;;;;;;;;;;;;;;;29.53;37.83;99678.69;5134430;27;19907;-37
2023/07/12 00:22:08;;;;;;;;;;;;;;;29.42;38.12;99677.47;5134175;27;19907;-37
2023/07/12 00:24:33;;;;;;;;;;;;;;;29.21;38.63;99678.22;5134124;27;19985;-37
2023/07/12 00:27:00;;;;;;;;;;;;;;;29.12;38.84;99671.94;5134011;27;20374;-37
2023/07/12 00:29:25;;;;;;;;;;;;;;;29.12;38.76;99679.38;5134072;27;19908;-37
2023/07/12 00:31:51;;;;;;;;;;;;;;;29.12;38.91;99674.69;5134086;27;19911;-37
2023/07/12 00:34:16;;;;;;;;;;;;;;;29.10;38.64;99674.22;5134180;27;19930;-37
2023/07/12 00:36:42;;;;;;;;;;;;;;;29.03;38.98;99672.00;5134004;27;19971;-36
2023/07/12 00:39:10;;;;;;;;;;;;;;;29.00;39.20;99671.84;5133913;27;20366;-36
2023/07/12 00:41:41;;;;;;;;;;;;;;;29.02;38.95;99672.34;5134284;27;19907;-37
2023/07/12 00:44:10;;;;;;;;;;;;;;;29.04;38.73;99678.28;5133844;27;20005;-37
2023/07/12 00:46:45;;;;;;;;;;;;;;;28.87;39.42;99668.19;5133834;27;19907;-37
2023/07/12 00:49:11;;;;;;;;;;;;;;;28.71;39.64;99673.41;5133832;27;19984;-36
2023/07/12 00:51:40;;;;;;;;;;;;;;;28.71;39.61;99672.59;5133733;27;19915;-36
2023/07/12 00:54:12;;;;;;;;;;;;;;;28.59;39.66;99663.13;5133238;27;19926;-36
2023/07/12 00:56:38;;;;;;;;;;;;;;;28.61;39.74;99673.75;5133521;27;19907;-36
2023/07/12 00:59:06;;;;;;;;;;;;;;;28.57;39.70;99670.84;5133578;27;20005;-37
2023/07/12 01:01:34;;;;;;;;;;;;;;;28.59;39.67;99668.59;5133379;27;19914;-36
2023/07/12 01:03:59;;;;;;;;;;;;;;;28.37;40.04;99664.13;5133808;27;20056;-37
2023/07/12 01:06:25;;;;;;;;;;;;;;;28.40;40.04;99663.44;5133048;27;19911;-37
2023/07/12 01:08:50;;;;;;;;;;;;;;;28.49;39.40;99660.72;5133360;27;20290;-37
2023/07/12 01:11:17;;;;;;;;;;;;;;;28.43;39.58;99654.59;5132658;27;20383;-36
2023/07/12 01:13:43;;;;;;;;;;;;;;;28.33;39.66;99656.88;5133146;27;19953;-37
2023/07/12 01:16:10;;;;;;;;;;;;;;;28.22;39.62;99635.31;5133427;27;19907;-36
2023/07/12 01:18:36;;;;;;;;;;;;;;;28.37;39.26;99661.38;5133434;27;19907;-37
2023/07/12 01:21:13;;;;;;;;;;;;;;;28.25;39.21;99651.09;5133213;27;19919;-37
2023/07/12 01:23:40;;;;;;;;;;;;;;;28.46;38.85;99643.00;5132777;27;20345;-37
2023/07/12 01:26:20;;;;;;;;;;;;;;;28.42;39.14;99644.78;5133307;27;19986;-37
2023/07/12 01:28:50;;;;;;;;;;;;;;;28.42;38.99;99642.03;5132874;27;19917;-37
2023/07/12 01:31:16;;;;;;;;;;;;;;;28.49;38.78;99646.22;5132719;27;19915;-37
2023/07/12 01:33:41;;;;;;;;;;;;;;;28.47;38.88;99646.53;5132937;27;19908;-36
2023/07/12 01:36:07;;;;;;;;;;;;;;;28.52;38.41;99651.88;5132784;27;19907;-37
2023/07/12 01:38:32;;;;;;;;;;;;;;;28.36;39.06;99645.28;5132644;27;19915;-37
2023/07/12 01:40:57;;;;;;;;;;;;;;;28.39;38.39;99645.44;5132982;27;20437;-36
2023/07/12 01:43:23;;;;;;;;;;;;;;;28.52;38.33;99656.53;5132814;27;19908;-37
2023/07/12 01:45:48;;;;;;;;;;;;;;;28.47;38.33;99652.03;5132450;27;20050;-37
2023/07/12 01:48:13;;;;;;;;;;;;;;;28.45;38.12;99652.34;5132686;27;20006;-37
2023/07/12 01:50:38;;;;;;;;;;;;;;;28.66;38.15;99655.22;5132123;27;19991;-37
2023/07/12 01:53:04;;;;;;;;;;;;;;;28.67;37.91;99653.28;5132751;27;19911;-42
2023/07/12 01:55:29;;;;;;;;;;;;;;;28.66;37.76;99657.16;5132300;27;19990;-37
2023/07/12 01:57:54;;;;;;;;;;;;;;;28.63;37.66;99657.78;5132670;27;19911;-37
2023/07/12 02:00:19;;;;;;;;;;;;;;;28.79;37.83;99658.88;5132150;27;19994;-37
2023/07/12 02:02:45;;;;;;;;;;;;;;;28.74;37.57;99650.84;5132440;27;20388;-37
2023/07/12 02:05:10;;;;;;;;;;;;;;;28.71;37.75;99659.72;5132223;27;19911;-37
2023/07/12 02:07:35;;;;;;;;;;;;;;;28.69;38.16;99659.22;5132011;27;19926;-37
2023/07/12 02:10:27;;;;;;;;;;;;;;;28.71;37.83;99654.25;5132090;27;19923;-37
2023/07/12 02:12:52;;;;;;;;;;;;;;;28.59;38.40;99649.44;5128755;27;20359;-37
2023/07/12 02:15:18;;;;;;;;;;;;;;;28.46;38.52;99647.66;5131910;27;19913;-37
2023/07/12 02:17:44;;;;;;;;;;;;;;;28.45;38.91;99657.81;5131947;27;19914;-36
2023/07/12 02:20:09;;;;;;;;;;;;;;;28.45;39.08;99660.56;5132051;27;20243;-37
2023/07/12 02:22:36;;;;;;;;;;;;;;;28.43;39.28;99671.03;5130991;27;19953;-37
2023/07/12 02:25:02;;;;;;;;;;;;;;;28.18;39.90;99666.38;5131957;27;19955;-36
2023/07/12 02:27:27;;;;;;;;;;;;;;;28.21;39.79;99655.59;5131738;27;19911;-36
2023/07/12 02:29:53;;;;;;;;;;;;;;;28.21;39.95;99665.72;5131651;27;19934;-36
2023/07/12 02:32:20;;;;;;;;;;;;;;;28.02;40.26;99669.59;5131557;27;19912;-36
2023/07/12 02:34:45;;;;;;;;;;;;;;;28.13;40.35;99661.88;5131298;27;20333;-37
2023/07/12 02:37:11;;;;;;;;;;;;;;;27.91;40.61;99664.78;5131593;27;19990;-37
2023/07/12 02:39:37;;;;;;;;;;;;;;;27.88;41.10;99671.66;5131727;27;19907;-37
2023/07/12 02:42:02;;;;;;;;;;;;;;;27.80;40.95;99680.69;5132056;27;19937;-36
2023/07/12 02:44:27;;;;;;;;;;;;;;;27.83;40.93;99677.28;5131693;27;19993;-37
2023/07/12 02:46:53;;;;;;;;;;;;;;;27.66;41.04;99683.53;5130774;27;20388;-37
2023/07/12 02:49:18;;;;;;;;;;;;;;;27.53;41.23;99657.97;5131386;27;20307;-37
2023/07/12 02:51:43;;;;;;;;;;;;;;;27.71;41.30;99677.13;5131239;27;19915;-36
2023/07/12 02:54:09;;;;;;;;;;;;;;;27.64;41.39;99677.59;5131441;27;19907;-36
2023/07/12 02:56:34;;;;;;;;;;;;;;;27.65;41.23;99684.69;5131274;27;19915;-36
2023/07/12 02:58:59;;;;;;;;;;;;;;;27.42;41.68;99686.72;5131340;27;19915;-36
2023/07/12 03:01:25;;;;;;;;;;;;;;;27.43;41.57;99689.09;5130848;27;19930;-36
2023/07/12 03:03:52;;;;;;;;;;;;;;;27.30;41.86;99696.31;5131150;27;19907;-36
2023/07/12 03:06:17;;;;;;;;;;;;;;;27.35;41.86;99697.28;5131096;27;20059;-37
2023/07/12 03:08:43;;;;;;;;;;;;;;;27.28;41.92;99703.19;5131406;27;20010;-37
2023/07/12 03:11:08;;;;;;;;;;;;;;;27.39;41.48;99701.78;5131147;27;19923;-37
2023/07/12 03:13:33;;;;;;;;;;;;;;;27.22;42.00;99704.44;5131170;28;19922;-36
2023/07/12 03:16:02;;;;;;;;;;;;;;;27.29;41.76;99710.28;5130956;28;19907;-37
2023/07/12 03:18:27;;;;;;;;;;;;;;;27.37;41.60;99708.72;5130916;28;19907;-37
2023/07/12 03:20:52;;;;;;;;;;;;;;;27.29;41.80;99715.75;5131030;28;19914;-35
2023/07/12 03:23:17;;;;;;;;;;;;;;;27.33;41.70;99714.00;5131045;28;19907;-36
2023/07/12 03:25:46;;;;;;;;;;;;;;;27.33;41.64;99714.00;5130853;28;20063;-37
2023/07/12 03:28:12;;;;;;;;;;;;;;;27.26;41.70;99706.28;5131071;27;19994;-36
2023/07/12 03:30:37;;;;;;;;;;;;;;;27.18;41.74;99708.94;5130800;28;20040;-36
2023/07/12 03:33:02;;;;;;;;;;;;;;;27.35;41.54;99713.69;5131428;27;20005;-36
2023/07/12 03:35:27;;;;;;;;;;;;;;;27.28;41.55;99711.41;5135264;27;19907;-36
2023/07/12 03:37:53;;;;;;;;;;;;;;;27.19;41.79;99714.09;5135134;27;20059;-36
2023/07/12 03:40:18;;;;;;;;;;;;;;;27.22;41.93;99709.91;5134661;27;19911;-36
2023/07/12 03:42:43;;;;;;;;;;;;;;;27.13;42.25;99722.72;5135339;27;20307;-36
2023/07/12 03:45:09;;;;;;;;;;;;;;;27.25;42.11;99736.63;5134425;27;20330;-36
2023/07/12 03:47:34;;;;;;;;;;;;;;;27.45;41.79;99724.31;5134164;27;19907;-36
2023/07/12 03:49:59;;;;;;;;;;;;;;;27.58;41.73;99728.06;5134966;27;19913;-36
2023/07/12 03:52:25;;;;;;;;;;;;;;;27.59;41.88;99729.69;5134383;27;19915;-36
2023/07/12 03:54:50;;;;;;;;;;;;;;;27.58;41.25;99731.59;5134951;27;19977;-36
2023/07/12 03:57:15;;;;;;;;;;;;;;;27.71;41.36;99727.13;5134359;27;19915;-36
2023/07/12 03:59:40;;;;;;;;;;;;;;;27.76;41.68;99734.34;5134214;27;20239;-36
2023/07/12 04:02:06;;;;;;;;;;;;;;;27.97;40.77;99719.00;5135253;27;20063;-36
2023/07/12 04:04:31;;;;;;;;;;;;;;;28.18;40.08;99732.84;5135377;27;19959;-36
2023/07/12 04:06:56;;;;;;;;;;;;;;;28.20;40.26;99729.78;5135381;27;19926;-36
2023/07/12 04:09:22;;;;;;;;;;;;;;;28.31;40.21;99724.78;5135681;27;19911;-37
2023/07/12 04:11:48;;;;;;;;;;;;;;;28.53;39.70;99727.38;5135015;27;20367;-36
2023/07/12 04:14:13;;;;;;;;;;;;;;;28.75;39.06;99733.75;5135092;27;19907;-36
2023/07/12 04:16:38;;;;;;;;;;;;;;;28.85;39.04;99734.22;5135355;27;20010;-36
2023/07/12 04:19:03;;;;;;;;;;;;;;;28.93;38.92;99735.34;5135331;27;19914;-37
2023/07/12 04:21:29;;;;;;;;;;;;;;;28.97;39.12;99739.03;5135551;27;19994;-37
2023/07/12 04:23:54;;;;;;;;;;;;;;;28.83;39.00;99717.34;5135653;27;19967;-37
2023/07/12 04:26:21;;;;;;;;;;;;;;;29.11;39.00;99738.00;5134955;27;19907;-37
2023/07/12 04:28:49;;;;;;;;;;;;;;;29.15;39.00;99748.03;5134856;27;19914;-37
2023/07/12 04:31:15;;;;;;;;;;;;;;;29.26;38.97;99753.94;5134929;27;19919;-37
2023/07/12 04:33:41;;;;;;;;;;;;;;;29.40;39.41;99761.97;5135072;27;19908;-36
2023/07/12 04:36:10;;;;;;;;;;;;;;;29.65;38.61;99753.94;5135248;27;19994;-37
2023/07/12 04:38:36;;;;;;;;;;;;;;;29.97;37.07;99756.03;5134810;27;19964;-37
2023/07/12 04:41:01;;;;;;;;;;;;;;;30.36;37.12;99740.22;5134921;27;19911;-37
2023/07/12 04:43:27;;;;;;;;;;;;;;;30.46;36.47;99743.72;5134672;27;20393;-37
2023/07/12 04:45:52;;;;;;;;;;;;;;;30.17;36.77;99748.91;5133551;27;20370;-37
2023/07/12 04:48:18;;;;;;;;;;;;;;;30.41;36.53;99744.72;5134182;27;20005;-37
2023/07/12 04:50:43;;;;;;;;;;;;;;;30.69;36.02;99738.63;5131304;27;19912;-35
2023/07/12 04:53:09;;;;;;;;;;;;;;;30.96;36.63;99751.78;5134059;27;19907;-37
2023/07/12 04:55:34;;;;;;;;;;;;;;;31.60;35.23;99754.28;5134091;27;19976;-38
2023/07/12 04:58:00;;;;;;;;;;;;;;;31.83;34.43;99755.38;5134230;27;19907;-36
2023/07/12 05:00:25;;;;;;;;;;;;;;;31.61;35.01;99755.91;5134129;27;19937;-36
2023/07/12 05:02:51;;;;;;;;;;;;;;;31.61;34.41;99755.91;5134019;27;19907;-36
2023/07/12 05:05:16;;;;;;;;;;;;;;;31.62;34.61;99763.78;5133996;27;20363;-37
2023/07/12 05:07:42;;;;;;;;;;;;;;;31.92;34.24;99763.53;5134372;27;20254;-37
2023/07/12 05:10:08;;;;;;;;;;;;;;;32.00;34.54;99762.56;5133614;27;20568;-37
2023/07/12 05:12:34;;;;;;;;;;;;;;;32.07;34.55;99756.53;5133634;27;20008;-37
2023/07/12 05:15:00;;;;;;;;;;;;;;;32.25;34.21;99760.63;5133913;27;19911;-36
2023/07/12 05:17:25;;;;;;;;;;;;;;;32.43;34.25;99765.81;5133331;27;19914;-37
2023/07/12 05:19:50;;;;;;;;;;;;;;;32.55;34.27;99776.78;5133008;27;19915;-37
2023/07/12 05:22:16;;;;;;;;;;;;;;;32.81;32.75;99778.31;5133664;27;19998;-37
2023/07/12 05:24:41;;;;;;;;;;;;;;;32.85;32.38;99771.72;5133354;27;20292;-36
2023/07/12 05:27:06;;;;;;;;;;;;;;;33.14;32.40;99769.75;5133558;27;19958;-37
2023/07/12 05:29:33;;;;;;;;;;;;;;;33.26;31.75;99775.19;5133648;27;19911;-37
2023/07/12 05:31:59;;;;;;;;;;;;;;;33.43;31.73;99775.97;5133447;27;19964;-39
2023/07/12 05:34:24;;;;;;;;;;;;;;;33.43;31.96;99768.47;5133665;27;19911;-37
2023/07/12 05:36:50;;;;;;;;;;;;;;;33.92;31.60;99770.03;5133352;27;19907;-37
2023/07/12 05:39:15;;;;;;;;;;;;;;;34.25;31.61;99763.25;5133142;27;19907;-37
2023/07/12 05:41:40;;;;;;;;;;;;;;;34.41;30.57;99763.22;5133239;27;19911;-36
2023/07/12 05:44:06;;;;;;;;;;;;;;;35.26;29.39;99754.13;5133055;27;19911;-37
2023/07/12 05:46:31;;;;;;;;;;;;;;;35.12;29.66;99760.19;5132837;27;20242;-36
2023/07/12 05:48:56;;;;;;;;;;;;;;;35.10;30.01;99763.31;5132647;27;19911;-37
2023/07/12 05:51:22;;;;;;;;;;;;;;;35.31;29.93;99767.66;5133337;27;19911;-36
2023/07/12 05:53:47;;;;;;;;;;;;;;;35.55;29.51;99766.44;5133006;27;20002;-37
2023/07/12 05:56:12;;;;;;;;;;;;;;;35.96;28.24;99769.41;5133255;27;19908;-38
2023/07/12 05:58:38;;;;;;;;;;;;;;;36.30;27.75;99770.28;5133135;27;19908;-37
2023/07/12 06:01:03;;;;;;;;;;;;;;;36.15;28.19;99771.25;5133304;27;19919;-41
2023/07/12 06:03:29;;;;;;;;;;;;;;;36.40;27.70;99777.13;5132893;27;19907;-41
2023/07/12 06:05:55;;;;;;;;;;;;;;;36.58;27.44;99783.69;5132915;27;19946;-42
2023/07/12 06:08:20;;;;;;;;;;;;;;;37.06;26.65;99782.22;5132421;27;19945;-41
2023/07/12 06:10:46;;;;;;;;;;;;;;;37.01;27.04;99777.00;5132104;27;19915;-41
2023/07/12 06:13:11;;;;;;;;;;;;;;;37.11;26.96;99785.44;5130813;27;19929;-40
2023/07/12 06:15:37;;;;;;;;;;;;;;;37.32;26.65;99784.06;5130950;27;19972;-42
2023/07/12 06:18:02;;;;;;;;;;;;;;;37.25;26.56;99778.44;5130645;27;20003;-42
2023/07/12 06:20:28;;;;;;;;;;;;;;;37.50;26.65;99773.88;5130872;27;19925;-42
2023/07/12 06:22:53;;;;;;;;;;;;;;;37.62;26.26;99774.78;5131098;27;19998;-42
2023/07/12 06:25:19;;;;;;;;;;;;;;;37.82;26.62;99773.31;5131235;27;19914;-40
2023/07/12 06:27:45;;;;;;;;;;;;;;;38.10;25.67;99769.94;5131382;27;20370;-42
2023/07/12 06:30:10;;;;;;;;;;;;;;;38.25;24.97;99773.56;5131796;27;19914;-41
2023/07/12 06:32:37;;;;;;;;;;;;;;;38.31;25.23;99774.00;5132019;27;19998;-43
2023/07/12 06:35:03;;;;;;;;;;;;;;;38.57;25.02;99772.88;5131922;27;19922;-43
2023/07/12 06:37:28;;;;;;;;;;;;;;;38.73;25.17;99772.53;5131588;27;19908;-44
2023/07/12 06:39:54;;;;;;;;;;;;;;;39.69;23.52;99763.41;5131686;27;20255;-43
2023/07/12 06:42:19;;;;;;;;;;;;;;;39.05;24.26;99769.00;5131810;27;20362;-44
2023/07/12 06:44:44;;;;;;;;;;;;;;;38.96;24.72;99771.38;5131541;27;19964;-40
2023/07/12 06:47:10;;;;;;;;;;;;;;;39.04;23.84;99768.22;5132023;27;20365;-46
2023/07/12 06:49:35;;;;;;;;;;;;;;;39.08;23.71;99771.81;5131865;27;20022;-43
2023/07/12 06:52:01;;;;;;;;;;;;;;;39.35;23.28;99767.81;5131389;27;19918;-43
2023/07/12 06:54:26;;;;;;;;;;;;;;;39.84;22.79;99768.97;5131726;27;19915;-42
2023/07/12 06:56:52;;;;;;;;;;;;;;;40.15;22.51;99758.13;5130997;27;19908;-43
2023/07/12 06:59:17;;;;;;;;;;;;;;;39.39;23.11;99765.84;5130829;27;20006;-42
2023/07/12 07:01:42;;;;;;;;;;;;;;;39.34;22.96;99767.03;5131108;27;19914;-42
2023/07/12 07:04:07;;;;;;;;;;;;;;;39.34;23.46;99766.22;5130671;27;19914;-42
2023/07/12 07:06:33;;;;;;;;;;;;;;;39.64;23.21;99763.84;5129536;27;20416;-43
2023/07/12 07:08:58;;;;;;;;;;;;;;;39.56;23.32;99770.59;5128408;27;20006;-43
2023/07/12 07:11:23;;;;;;;;;;;;;;;40.65;22.27;99764.28;5129138;27;19924;-43
2023/07/12 07:13:50;;;;;;;;;;;;;;;40.51;22.50;99769.13;5129696;27;19915;-43
2023/07/12 07:16:15;;;;;;;;;;;;;;;40.49;21.88;99758.38;5129619;27;19911;-43
2023/07/12 07:18:41;;;;;;;;;;;;;;;40.26;22.29;99762.47;5130210;28;19907;-42
2023/07/12 07:21:06;;;;;;;;;;;;;;;40.67;22.09;99757.47;5130303;28;20406;-42
2023/07/12 07:23:33;;;;;;;;;;;;;;;40.45;22.00;99758.41;5130668;28;19954;-45
2023/07/12 07:26:02;;;;;;;;;;;;;;;40.69;21.61;99755.91;5130712;28;19963;-43
2023/07/12 07:28:27;;;;;;;;;;;;;;;41.06;20.93;99759.22;5130658;28;20020;-43
2023/07/12 07:30:56;;;;;;;;;;;;;;;40.38;21.90;99758.44;5130477;28;20380;-42
2023/07/12 07:33:22;;;;;;;;;;;;;;;40.60;21.47;99759.13;5130566;28;19914;-43
2023/07/12 07:35:47;;;;;;;;;;;;;;;40.80;21.96;99753.84;5130273;28;19915;-43
2023/07/12 07:38:15;;;;;;;;;;;;;;;41.10;21.19;99757.19;5130306;28;19907;-43
2023/07/12 07:40:41;;;;;;;;;;;;;;;41.43;20.80;99752.94;5130507;28;19964;-45
2023/07/12 07:43:07;;;;;;;;;;;;;;;41.82;20.66;99760.13;5130287;28;19907;-42
2023/07/12 07:45:32;;;;;;;;;;;;;;;42.60;20.03;99757.59;5129930;28;19911;-42
2023/07/12 07:47:58;;;;;;;;;;;;;;;41.95;20.07;99754.81;5130087;28;19908;-44
2023/07/12 07:50:23;;;;;;;;;;;;;;;41.82;20.47;99765.72;5130407;28;20007;-43
2023/07/12 07:52:49;;;;;;;;;;;;;;;41.76;20.69;99759.00;5130181;28;20397;-45
2023/07/12 07:55:14;;;;;;;;;;;;;;;41.86;20.46;99760.09;5130089;28;19912;-43
2023/07/12 07:57:39;;;;;;;;;;;;;;;41.99;19.17;99759.13;5129655;28;19914;-43
2023/07/12 08:00:10;;;;;;;;;;;;;;;42.05;19.82;99761.50;5130239;28;19911;-42
2023/07/12 08:02:35;;;;;;;;;;;;;;;42.89;19.39;99752.34;5130194;28;19923;-46
2023/07/12 08:05:00;;;;;;;;;;;;;;;42.61;19.62;99752.78;5129770;28;19996;-44
2023/07/12 08:07:26;;;;;;;;;;;;;;;42.24;19.82;99743.28;5130063;28;19911;-44
2023/07/12 08:09:52;;;;;;;;;;;;;;;41.52;20.48;99758.81;5129610;28;19972;-43
2023/07/12 08:12:17;;;;;;;;;;;;;;;41.18;21.22;99753.13;5129796;28;19915;-43
2023/07/12 08:14:43;;;;;;;;;;;;;;;41.52;20.36;99755.25;5130118;28;20010;-45
2023/07/12 08:17:09;;;;;;;;;;;;;;;41.04;20.36;99756.84;5129915;28;20214;-43
2023/07/12 08:19:34;;;;;;;;;;;;;;;41.42;20.94;99760.50;5129421;27;20377;-42
2023/07/12 08:21:59;;;;;;;;;;;;;;;41.60;20.82;99754.78;5132815;27;19907;-42
2023/07/12 08:24:24;;;;;;;;;;;;;;;41.71;20.63;99753.88;5133990;27;19911;-42
2023/07/12 08:26:50;;;;;;;;;;;;;;;42.07;20.37;99751.47;5133514;27;19994;-43
2023/07/12 08:29:15;;;;;;;;;;;;;;;42.17;19.75;99755.34;5133473;27;19913;-43
2023/07/12 08:31:40;;;;;;;;;;;;;;;42.25;19.66;99742.88;5133222;27;19915;-43
2023/07/12 08:34:06;;;;;;;;;;;;;;;42.22;19.76;99742.91;5133401;27;20401;-46
2023/07/12 08:36:31;;;;;;;;;;;;;;;42.45;19.49;99737.38;5133611;27;20284;-43
2023/07/12 08:38:56;;;;;;;;;;;;;;;42.43;19.27;99733.44;5133215;27;20553;-45
2023/07/12 08:41:24;;;;;;;;;;;;;;;41.69;19.79;99723.56;5132965;27;19934;-44
2023/07/12 08:43:50;;;;;;;;;;;;;;;42.10;19.31;99733.88;5133386;27;19907;-42
2023/07/12 08:46:20;;;;;;;;;;;;;;;42.06;20.10;99735.94;5132970;27;19964;-41
2023/07/12 08:48:51;;;;;;;;;;;;;;;42.46;20.36;99732.59;5133086;27;19919;-45
2023/07/12 08:51:19;;;;;;;;;;;;;;;41.86;19.63;99721.00;5132480;27;20405;-42
2023/07/12 08:53:45;;;;;;;;;;;;;;;41.50;20.54;99724.94;5133092;27;19907;-43
2023/07/12 08:56:14;;;;;;;;;;;;;;;41.15;20.53;99742.81;5133371;27;19972;-43
2023/07/12 08:58:43;;;;;;;;;;;;;;;41.86;20.00;99741.34;5132911;27;20533;-43
2023/07/12 09:01:14;;;;;;;;;;;;;;;42.19;19.79;99742.56;5132344;27;19914;-43
2023/07/12 09:03:39;;;;;;;;;;;;;;;41.76;19.76;99736.69;5132860;27;20391;-43
2023/07/12 09:06:15;;;;;;;;;;;;;;;42.28;20.02;99742.03;5132686;27;19911;-45
2023/07/12 09:08:43;;;;;;;;;;;;;;;42.46;19.24;99743.78;5132900;27;20391;-45
2023/07/12 09:11:16;;;;;;;;;;;;;;;41.91;19.49;99742.84;5132668;27;19927;-43
2023/07/12 09:13:42;;;;;;;;;;;;;;;42.41;18.97;99747.84;5132721;27;19911;-43
2023/07/12 09:16:26;;;;;;;;;;;;;;;42.61;19.22;99744.38;5133143;27;19929;-44
2023/07/12 09:18:52;;;;;;;;;;;;;;;42.28;20.41;99741.25;5132619;27;20024;-42
2023/07/12 09:21:22;;;;;;;;;;;;;;;42.12;20.31;99737.06;5132955;27;19914;-43
2023/07/12 09:23:48;;;;;;;;;;;;;;;42.47;20.01;99737.78;5114551;27;19907;-44
2023/07/12 09:26:24;;;;;;;;;;;;;;;42.48;20.35;99733.78;5133289;27;20343;-42
2023/07/12 09:28:51;;;;;;;;;;;;;;;42.63;19.93;99725.97;5132638;27;19964;-45
2023/07/12 09:31:20;;;;;;;;;;;;;;;42.48;19.96;99733.78;5132166;27;19934;-44
2023/07/12 09:33:49;;;;;;;;;;;;;;;42.51;19.92;99737.75;5132885;27;19911;-44
2023/07/12 09:36:15;;;;;;;;;;;;;;;42.36;20.06;99726.72;5132790;27;19907;-43
2023/07/12 09:38:42;;;;;;;;;;;;;;;41.92;20.38;99728.47;5132812;27;19918;-42
2023/07/12 09:41:15;;;;;;;;;;;;;;;41.94;20.76;99733.66;5132061;27;20385;-43
2023/07/12 09:43:40;;;;;;;;;;;;;;;41.99;20.50;99738.78;5132334;27;20352;-44
2023/07/12 09:46:14;;;;;;;;;;;;;;;41.92;20.33;99738.88;5132132;27;19907;-43
2023/07/12 09:48:45;;;;;;;;;;;;;;;42.25;20.17;99734.50;5131852;27;19908;-42
2023/07/12 09:51:13;;;;;;;;;;;;;;;42.26;19.56;99729.69;5132308;27;19998;-43
2023/07/12 09:53:52;;;;;;;;;;;;;;;41.59;20.17;99728.03;5131899;27;20270;-42
2023/07/12 09:56:20;;;;;;;;;;;;;;;41.82;20.75;99735.00;5131909;27;19911;-44
2023/07/12 09:58:55;;;;;;;;;;;;;;;42.11;20.54;99741.03;5131777;27;20283;-42
2023/07/12 10:01:20;;;;;;;;;;;;;;;42.12;20.29;99727.88;5132119;27;19907;-41
2023/07/12 10:03:50;;;;;;;;;;;;;;;42.19;20.18;99723.00;5131836;27;20301;-44
2023/07/12 10:06:22;;;;;;;;;;;;;;;41.69;20.80;99714.41;5131580;27;19919;-41
2023/07/12 10:09:13;;;;;;;;;;;;;;;42.23;20.34;99722.13;5131482;27;19914;-43
2023/07/12 10:11:43;;;;;;;;;;;;;;;41.94;20.38;99703.72;5127869;27;20530;-43
2023/07/12 10:14:11;;;;;;;;;;;;;;;42.28;20.98;99697.28;5131658;27;20395;-44
2023/07/12 10:16:43;;;;;;;;;;;;;;;42.77;20.34;99703.38;5131406;27;19911;-43
2023/07/12 10:19:22;;;;;;;;;;;;;;;42.68;20.76;99694.72;5132337;27;20267;-42
2023/07/12 10:21:52;;;;;;;;;;;;;;;42.75;20.29;99700.22;5131983;27;19907;-42
2023/07/12 10:24:18;;;;;;;;;;;;;;;42.33;20.36;99682.84;5132137;27;19911;-44
2023/07/12 10:26:44;;;;;;;;;;;;;;;42.91;19.59;99682.00;5132578;27;19907;-42
2023/07/12 10:29:12;;;;;;;;;;;;;;;41.66;20.83;99676.13;5131985;27;19942;-42
2023/07/12 10:31:42;;;;;;;;;;;;;;;42.31;19.81;99679.69;5132024;27;19963;-42
2023/07/12 10:34:21;;;;;;;;;;;;;;;42.54;20.06;99672.59;5131987;27;19997;-42
2023/07/12 10:36:49;;;;;;;;;;;;;;;42.88;19.30;99666.06;5131876;27;19915;-42
2023/07/12 10:39:15;;;;;;;;;;;;;;;42.75;19.27;99672.25;5132033;27;19907;-43
2023/07/12 10:41:49;;;;;;;;;;;;;;;42.55;19.43;99674.94;5131834;27;20311;-42
2023/07/12 10:44:22;;;;;;;;;;;;;;;43.04;19.64;99668.19;5131296;27;19925;-42
2023/07/12 10:46:54;;;;;;;;;;;;;;;43.26;19.04;99657.38;5131433;27;20375;-42
2023/07/12 10:49:34;;;;;;;;;;;;;;;43.01;19.30;99655.03;5131487;27;19907;-42
2023/07/12 10:52:11;;;;;;;;;;;;;;;42.64;18.99;99654.84;5131710;27;19956;-43
2023/07/12 10:54:37;;;;;;;;;;;;;;;42.79;19.48;99651.81;5131772;27;19907;-43
2023/07/12 10:57:07;;;;;;;;;;;;;;;43.29;18.80;99654.53;5132008;27;19979;-43
2023/07/12 10:59:32;;;;;;;;;;;;;;;42.84;18.39;99643.72;5131590;27;19907;-42
2023/07/12 11:02:17;;;;;;;;;;;;;;;41.76;18.70;99641.72;5131645;27;20276;-42
2023/07/12 11:04:47;;;;;;;;;;;;;;;42.24;19.01;99651.06;5120147;27;19911;-42
2023/07/12 11:07:15;;;;;;;;;;;;;;;42.11;19.38;99645.25;5131652;27;20256;-42
2023/07/12 11:09:44;;;;;;;;;;;;;;;42.58;18.71;99634.19;5130964;27;20469;-43
2023/07/12 11:12:11;;;;;;;;;;;;;;;42.65;18.25;99634.06;5131857;27;19911;-46
2023/07/12 11:14:37;;;;;;;;;;;;;;;42.28;18.83;99637.81;5131116;27;19927;-42
2023/07/12 11:17:05;;;;;;;;;;;;;;;42.02;18.35;99628.19;5131050;27;19907;-43
2023/07/12 11:19:54;;;;;;;;;;;;;;;42.19;18.62;99635.53;5131073;28;20386;-42
2023/07/12 11:22:22;;;;;;;;;;;;;;;42.48;18.94;99640.72;5123055;28;19907;-42
2023/07/12 11:24:47;;;;;;;;;;;;;;;42.68;18.64;99624.81;5131609;28;19979;-42
2023/07/12 11:27:32;;;;;;;;;;;;;;;42.24;17.96;99626.69;5131169;28;20354;-44
2023/07/12 11:30:07;;;;;;;;;;;;;;;41.67;18.84;99622.66;5131395;28;19908;-45
2023/07/12 11:32:40;;;;;;;;;;;;;;;41.69;18.89;99614.66;5131134;28;19911;-44
2023/07/12 11:35:08;;;;;;;;;;;;;;;42.57;17.61;99607.41;5131223;28;19918;-41
2023/07/12 11:37:36;;;;;;;;;;;;;;;42.46;18.46;99612.38;5131185;28;19911;-41
2023/07/12 11:40:10;;;;;;;;;;;;;;;42.90;18.73;99602.88;5131271;28;19950;-41
2023/07/12 11:42:36;;;;;;;;;;;;;;;43.41;17.86;99597.09;5130795;28;19968;-41
2023/07/12 11:45:03;;;;;;;;;;;;;;;43.03;17.55;99602.22;5131120;28;19907;-42
2023/07/12 11:47:29;;;;;;;;;;;;;;;43.61;16.74;99596.31;5131005;28;19911;-41
2023/07/12 11:49:57;;;;;;;;;;;;;;;43.14;17.00;99605.63;5130980;28;19956;-41
2023/07/12 11:52:23;;;;;;;;;;;;;;;43.43;17.36;99589.09;5131279;28;19911;-41
2023/07/12 11:54:49;;;;;;;;;;;;;;;43.84;16.92;99587.81;5132775;27;20362;-40
2023/07/12 11:57:15;;;;;;;;;;;;;;;43.71;17.58;99593.28;5135104;27;19907;-41
2023/07/12 11:59:42;;;;;;;;;;;;;;;43.19;18.96;99595.94;5134660;27;19949;-42
2023/07/12 12:02:13;;;;;;;;;;;;;;;42.66;19.66;99587.31;5135165;27;19930;-41
2023/07/12 12:04:38;;;;;;;;;;;;;;;42.43;20.45;99596.47;5116529;27;19907;-42
2023/07/12 12:07:15;;;;;;;;;;;;;;;41.97;21.15;99588.34;5135067;27;20315;-43
2023/07/12 12:09:40;;;;;;;;;;;;;;;41.29;21.82;99588.41;5134840;27;20021;-42
2023/07/12 12:12:07;;;;;;;;;;;;;;;41.07;22.36;99583.06;5134542;27;20386;-43
2023/07/12 12:14:38;;;;;;;;;;;;;;;40.80;22.53;99585.72;5134634;27;19912;-41
2023/07/12 12:17:05;;;;;;;;;;;;;;;41.07;22.28;99577.47;5134974;27;19907;-43
2023/07/12 12:19:31;;;;;;;;;;;;;;;40.19;22.62;99584.16;5134300;27;20290;-43
2023/07/12 12:22:17;;;;;;;;;;;;;;;40.29;22.89;99581.72;5134687;27;19960;-46
2023/07/12 12:24:46;;;;;;;;;;;;;;;40.90;21.88;99584.00;5134869;27;19907;-43
2023/07/12 12:27:18;;;;;;;;;;;;;;;41.29;21.77;99569.66;5134934;27;19934;-42
2023/07/12 12:29:44;;;;;;;;;;;;;;;41.70;21.90;99576.34;5134695;27;19907;-42
2023/07/12 12:32:15;;;;;;;;;;;;;;;41.75;21.09;99573.09;5134505;27;20010;-41
2023/07/12 12:34:47;;;;;;;;;;;;;;;41.10;21.86;99571.06;5134942;27;19908;-42
2023/07/12 12:37:21;;;;;;;;;;;;;;;40.86;21.76;99572.09;5134525;27;20089;-43
2023/07/12 12:39:59;;;;;;;;;;;;;;;40.82;21.94;99580.50;5134350;27;20340;-41
2023/07/12 12:42:26;;;;;;;;;;;;;;;40.45;22.45;99576.44;5134196;27;20425;-44
2023/07/12 12:44:54;;;;;;;;;;;;;;;41.20;21.92;99575.75;5134743;27;19957;-42
2023/07/12 12:47:24;;;;;;;;;;;;;;;41.19;21.93;99567.78;5134634;27;19908;-42